Taylor, Wisconsin
Current Conditions -  °F | °C
As of 1:15 PM on Friday 28 Nov 2014 (Local Time) from KBCK Reporting Station
Overcast Overcast  
Wind Chill: 22°   Ceiling: 2500
Heat Index: 28°   Visibility: 10mi
Dew Point: 14°   Wind: 6mph
Humidity: 56%   Direction: 180°S
Pressure: 29.94"   Gusts: NA
Location:  44.32°N, 91.12°W
Report Text: KBCK 281915Z AUTO 18005KT 10SM BKN025 OVC075 M02/M10 A2994 RMK AO2 T10231101
Loading
Personal Weather Stations






























Interactive Weather Map New forecast layout! Learn more

10-Day Weather Forecast

Advertisements
Track Severe Weather on mobile